Time;durP1;ratioP1;P1;durP2;ratioP2;P2;SDS_P1;SDS_P2;PMS_P1;PMS_P2;Temp;Humidity;BMP_temperature;BMP_pressure;BME280_temperature;BME280_humidity;BME280_pressure;Samples;Min_cycle;Max_cycle;Signal;HPM_P1;HPM_P2
2023/03/28 00:00:35;;;;;;;8.32;1.88;;;;;;;;;;5078400;28;20268;-84
2023/03/28 00:03:03;;;;;;;5.30;1.48;;;;;;;;;;5075989;28;20255;-83
2023/03/28 00:05:31;;;;;;;5.90;1.73;;;;;;;;;;5091611;22;20720;-80
2023/03/28 00:07:59;;;;;;;4.55;4.00;;;;;;;;;;5065598;28;20190;-82
2023/03/28 00:10:28;;;;;;;4.72;1.42;;;;;;;;;;5073867;28;20197;-80
2023/03/28 00:12:55;;;;;;;5.57;1.50;;;;;;;;;;5064504;28;20204;-82
2023/03/28 00:15:24;;;;;;;4.72;2.63;;;;;;;;;;5075201;28;20221;-82
2023/03/28 00:17:52;;;;;;;3.20;1.33;;;;;;;;;;5071069;28;20284;-81
2023/03/28 00:20:19;;;;;;;4.00;1.73;;;;;;;;;;5074741;28;20661;-81
2023/03/28 00:22:48;;;;;;;4.68;1.90;;;;;;;;;;5074801;28;20733;-81
2023/03/28 00:25:15;;;;;;;5.55;1.70;;;;;;;;;;5075604;28;20251;-81
2023/03/28 00:27:43;;;;;;;4.82;2.10;;;;;;;;;;5068905;28;20232;-80
2023/03/28 00:30:11;;;;;;;4.35;1.70;;;;;;;;;;5073759;28;20285;-82
2023/03/28 00:32:40;;;;;;;5.35;2.20;;;;;;;;;;5075880;28;20197;-82
2023/03/28 00:35:09;;;;;;;5.45;1.67;;;;;;;;;;5074318;28;20292;-81
2023/03/28 00:37:36;;;;;;;8.15;2.67;;;;;;;;;;5073129;28;20229;-82
2023/03/28 00:40:06;;;;;;;11.23;2.38;;;;;;;;;;5071187;28;20201;-80
2023/03/28 00:42:33;;;;;;;7.30;2.28;;;;;;;;;;5075817;28;20288;-81
2023/03/28 00:45:01;;;;;;;6.15;1.70;;;;;;;;;;5073188;28;20303;-82
2023/03/28 00:47:44;;;;;;;9.48;2.20;;;;;;;;;;5076150;28;20647;-82
2023/03/28 00:50:18;;;;;;;4.63;2.22;;;;;;;;;;5057680;28;20264;-82
2023/03/28 00:52:51;;;;;;;5.50;2.28;;;;;;;;;;5057612;28;20198;-81
2023/03/28 00:55:22;;;;;;;4.60;1.70;;;;;;;;;;5057624;28;20226;-82
2023/03/28 00:57:50;;;;;;;8.85;2.90;;;;;;;;;;5057486;28;20229;-82
2023/03/28 01:00:19;;;;;;;5.35;1.90;;;;;;;;;;5056277;28;20284;-81
2023/03/28 01:02:51;;;;;;;11.25;2.22;;;;;;;;;;5058209;28;20206;-82
2023/03/28 01:05:22;;;;;;;9.15;3.22;;;;;;;;;;5075067;28;20255;-81
2023/03/28 01:07:53;;;;;;;4.55;2.38;;;;;;;;;;5074900;28;20567;-80
2023/03/28 01:10:21;;;;;;;6.00;2.10;;;;;;;;;;5069522;28;20661;-81
2023/03/28 01:12:49;;;;;;;4.70;1.80;;;;;;;;;;5057921;28;20213;-82
2023/03/28 01:15:16;;;;;;;6.18;2.05;;;;;;;;;;5071606;28;20696;-80
2023/03/28 01:17:45;;;;;;;8.57;2.22;;;;;;;;;;5074592;28;20216;-82
2023/03/28 01:20:26;;;;;;;6.75;2.65;;;;;;;;;;5073940;28;20200;-81
2023/03/28 01:23:36;;;;;;;5.70;2.45;;;;;;;;;;5070334;28;20730;-81
2023/03/28 01:26:43;;;;;;;7.70;3.30;;;;;;;;;;5070776;28;20679;-81
2023/03/28 01:29:59;;;;;;;6.72;2.55;;;;;;;;;;5058682;28;20700;-80
2023/03/28 01:33:19;;;;;;;8.80;2.40;;;;;;;;;;5074120;28;20251;-82
2023/03/28 01:36:33;;;;;;;5.75;1.83;;;;;;;;;;5069199;28;20227;-80
2023/03/28 01:39:08;;;;;;;3.70;2.38;;;;;;;;;;5035556;28;20196;-81
2023/03/28 01:41:41;;;;;;;6.95;3.10;;;;;;;;;;5066777;28;20203;-81
2023/03/28 01:44:13;;;;;;;6.95;2.42;;;;;;;;;;5069446;28;20229;-82
2023/03/28 01:46:46;;;;;;;5.75;2.85;;;;;;;;;;5056318;28;20265;-82
2023/03/28 01:49:19;;;;;;;4.55;2.03;;;;;;;;;;5056626;28;20221;-82
2023/03/28 01:51:54;;;;;;;3.35;1.77;;;;;;;;;;5055716;28;20208;-82
2023/03/28 01:54:30;;;;;;;5.60;3.30;;;;;;;;;;5069321;28;20230;-82
2023/03/28 01:57:06;;;;;;;2.88;1.75;;;;;;;;;;5075520;28;20200;-82
2023/03/28 01:59:37;;;;;;;4.07;2.05;;;;;;;;;;5075153;28;20204;-81
2023/03/28 02:02:07;;;;;;;7.20;2.45;;;;;;;;;;5063354;28;20209;-81
2023/03/28 02:04:37;;;;;;;3.83;1.65;;;;;;;;;;5057476;28;20316;-82
2023/03/28 02:07:07;;;;;;;6.18;2.20;;;;;;;;;;5055467;28;20209;-82
2023/03/28 02:09:37;;;;;;;2.70;2.17;;;;;;;;;;5055841;28;20757;-83
2023/03/28 02:12:10;;;;;;;9.15;2.80;;;;;;;;;;5055884;28;20296;-82
2023/03/28 02:14:41;;;;;;;5.82;2.13;;;;;;;;;;5064411;28;20217;-80
2023/03/28 02:17:14;;;;;;;9.23;2.03;;;;;;;;;;5065863;28;20263;-81
2023/03/28 02:19:45;;;;;;;5.32;2.13;;;;;;;;;;5061022;28;20258;-80
2023/03/28 02:22:20;;;;;;;4.43;1.65;;;;;;;;;;5072704;28;20197;-81
2023/03/28 02:24:50;;;;;;;6.07;1.60;;;;;;;;;;5073324;28;20223;-81
2023/03/28 02:27:19;;;;;;;6.30;1.60;;;;;;;;;;5071805;28;20204;-80
2023/03/28 02:29:48;;;;;;;3.28;1.50;;;;;;;;;;5071171;28;20201;-83
2023/03/28 02:32:16;;;;;;;5.75;2.08;;;;;;;;;;5072716;28;20197;-82
2023/03/28 02:34:46;;;;;;;2.35;1.85;;;;;;;;;;5074330;28;20252;-82
2023/03/28 02:37:25;;;;;;;5.38;1.50;;;;;;;;;;5068947;28;20262;-81
2023/03/28 02:40:15;;;;;;;4.47;1.90;;;;;;;;;;5072842;28;20200;-81
2023/03/28 02:43:01;;;;;;;13.25;3.33;;;;;;;;;;5066154;28;20283;-79
2023/03/28 02:46:04;;;;;;;5.88;2.03;;;;;;;;;;5069470;28;20271;-82
2023/03/28 02:48:48;;;;;;;5.35;2.15;;;;;;;;;;5041114;28;20201;-82
2023/03/28 02:51:29;;;;;;;14.98;2.80;;;;;;;;;;5073325;28;20205;-82
2023/03/28 02:54:04;;;;;;;7.20;2.67;;;;;;;;;;5070698;28;20248;-80
2023/03/28 02:56:41;;;;;;;8.77;2.47;;;;;;;;;;5074704;28;20653;-81
2023/03/28 02:59:14;;;;;;;3.05;1.58;;;;;;;;;;5063163;28;20231;-82
2023/03/28 03:01:42;;;;;;;11.75;2.13;;;;;;;;;;5068456;28;20569;-82
2023/03/28 03:04:10;;;;;;;8.98;2.50;;;;;;;;;;5064499;28;20323;-81
2023/03/28 03:06:37;;;;;;;4.22;1.70;;;;;;;;;;5073755;28;20193;-81
2023/03/28 03:09:07;;;;;;;3.40;2.13;;;;;;;;;;5073773;28;20204;-80
2023/03/28 03:11:45;;;;;;;7.65;2.00;;;;;;;;;;5066747;28;20200;-82
2023/03/28 03:14:13;;;;;;;7.07;2.15;;;;;;;;;;5073932;28;20248;-79
2023/03/28 03:16:41;;;;;;;3.88;1.83;;;;;;;;;;5068200;28;20609;-81
2023/03/28 03:19:10;;;;;;;7.68;2.15;;;;;;;;;;5070468;28;20247;-82
2023/03/28 03:21:37;;;;;;;6.35;2.55;;;;;;;;;;5073450;28;20665;-81
2023/03/28 03:24:08;;;;;;;2.00;1.50;;;;;;;;;;5066246;28;20228;-81
2023/03/28 03:26:39;;;;;;;8.45;3.20;;;;;;;;;;5066772;28;20197;-81
2023/03/28 03:29:08;;;;;;;10.10;1.77;;;;;;;;;;5066272;28;20482;-83
2023/03/28 03:31:35;;;;;;;8.10;2.40;;;;;;;;;;5069178;28;20205;-83
2023/03/28 03:34:03;;;;;;;6.13;2.28;;;;;;;;;;5075331;28;20225;-80
2023/03/28 03:36:31;;;;;;;5.35;2.70;;;;;;;;;;5074922;28;20570;-81
2023/03/28 03:38:59;;;;;;;5.80;1.73;;;;;;;;;;5075167;28;20221;-83
2023/03/28 03:41:27;;;;;;;5.72;2.08;;;;;;;;;;5076465;28;20606;-81
2023/03/28 03:43:59;;;;;;;3.97;1.77;;;;;;;;;;5074270;28;20213;-81
2023/03/28 03:46:26;;;;;;;9.20;2.10;;;;;;;;;;5078865;28;20196;-81
2023/03/28 03:48:54;;;;;;;4.40;1.85;;;;;;;;;;5078792;28;20284;-81
2023/03/28 03:51:22;;;;;;;6.15;2.20;;;;;;;;;;5078348;28;20205;-80
2023/03/28 03:53:50;;;;;;;2.45;1.90;;;;;;;;;;5077703;28;20291;-83
2023/03/28 03:56:18;;;;;;;5.95;2.22;;;;;;;;;;5058179;28;20681;-79
2023/03/28 03:58:46;;;;;;;12.60;2.17;;;;;;;;;;5056670;28;20228;-80
2023/03/28 04:01:15;;;;;;;5.97;1.88;;;;;;;;;;5072345;28;20207;-81
2023/03/28 04:03:42;;;;;;;3.08;1.60;;;;;;;;;;5077635;28;20212;-81
2023/03/28 04:06:11;;;;;;;7.65;2.17;;;;;;;;;;5057888;28;20293;-81
2023/03/28 04:08:39;;;;;;;7.05;1.92;;;;;;;;;;5056115;28;20225;-82
2023/03/28 04:11:09;;;;;;;8.88;2.08;;;;;;;;;;5058055;28;20592;-83
2023/03/28 04:13:37;;;;;;;6.60;2.13;;;;;;;;;;5069203;28;20220;-82
2023/03/28 04:16:06;;;;;;;3.05;1.35;;;;;;;;;;5071161;28;20206;-82
2023/03/28 04:18:35;;;;;;;3.40;2.03;;;;;;;;;;5075116;28;20220;-83
2023/03/28 04:21:03;;;;;;;3.20;1.70;;;;;;;;;;5074679;28;20205;-79
2023/03/28 04:23:30;;;;;;;2.50;1.48;;;;;;;;;;5061096;28;20200;-79
2023/03/28 04:25:59;;;;;;;2.30;1.58;;;;;;;;;;5071715;28;20307;-82
2023/03/28 04:28:27;;;;;;;4.57;1.77;;;;;;;;;;5075783;28;20288;-81
2023/03/28 04:30:57;;;;;;;6.55;2.97;;;;;;;;;;5074298;28;20197;-81
2023/03/28 04:33:27;;;;;;;6.22;1.73;;;;;;;;;;5076438;28;20199;-82
2023/03/28 04:36:00;;;;;;;5.90;1.70;;;;;;;;;;5075118;28;20312;-80
2023/03/28 04:38:30;;;;;;;2.63;2.00;;;;;;;;;;5075960;28;20215;-79
2023/03/28 04:40:58;;;;;;;7.20;2.50;;;;;;;;;;5074845;28;20205;-80
2023/03/28 04:43:27;;;;;;;8.82;1.75;;;;;;;;;;5074817;28;20212;-82
2023/03/28 04:45:57;;;;;;;5.32;1.85;;;;;;;;;;5076346;28;20213;-82
2023/03/28 04:48:26;;;;;;;4.80;2.20;;;;;;;;;;5074144;28;20203;-83
2023/03/28 04:50:55;;;;;;;3.45;2.15;;;;;;;;;;5072815;28;20212;-81
2023/03/28 04:53:23;;;;;;;4.55;1.42;;;;;;;;;;5074653;28;20234;-80
2023/03/28 04:55:52;;;;;;;1.38;1.27;;;;;;;;;;5076103;28;20223;-82
2023/03/28 04:58:20;;;;;;;3.58;1.50;;;;;;;;;;5074792;28;20204;-82
2023/03/28 05:00:49;;;;;;;4.90;1.75;;;;;;;;;;5075904;28;20227;-82
2023/03/28 05:03:20;;;;;;;5.50;2.58;;;;;;;;;;5071176;28;20209;-82
2023/03/28 05:05:50;;;;;;;7.00;2.03;;;;;;;;;;5069430;28;20259;-80
2023/03/28 05:08:22;;;;;;;3.17;1.58;;;;;;;;;;5075698;28;20209;-81
2023/03/28 05:10:50;;;;;;;5.57;1.63;;;;;;;;;;5074785;28;20191;-81
2023/03/28 05:13:19;;;;;;;4.13;1.98;;;;;;;;;;5072623;28;20601;-83
2023/03/28 05:15:48;;;;;;;4.82;2.17;;;;;;;;;;5076640;28;20228;-82
2023/03/28 05:18:17;;;;;;;2.22;1.35;;;;;;;;;;5076758;28;20586;-79
2023/03/28 05:20:45;;;;;;;1.98;1.42;;;;;;;;;;5068185;28;20220;-82
2023/03/28 05:23:13;;;;;;;3.35;1.38;;;;;;;;;;5055143;28;20282;-82
2023/03/28 05:25:49;;;;;;;3.63;1.50;;;;;;;;;;5055751;28;20236;-81
2023/03/28 05:28:18;;;;;;;5.40;2.50;;;;;;;;;;5055221;28;20288;-82
2023/03/28 05:30:46;;;;;;;4.03;2.00;;;;;;;;;;5064014;28;20281;-82
2023/03/28 05:33:14;;;;;;;7.57;1.77;;;;;;;;;;5076738;28;20203;-81
2023/03/28 05:35:42;;;;;;;5.90;1.92;;;;;;;;;;5071191;28;20222;-80
2023/03/28 05:38:10;;;;;;;4.00;2.50;;;;;;;;;;5054963;28;20259;-81
2023/03/28 05:40:38;;;;;;;5.95;2.05;;;;;;;;;;5061996;28;20213;-86
2023/03/28 05:43:07;;;;;;;3.85;1.63;;;;;;;;;;5064925;28;20673;-86
2023/03/28 05:45:35;;;;;;;4.47;1.70;;;;;;;;;;5062139;28;20278;-86
2023/03/28 05:48:04;;;;;;;5.85;2.03;;;;;;;;;;5066433;28;20725;-85
2023/03/28 05:50:32;;;;;;;3.15;1.50;;;;;;;;;;5068937;28;20196;-85
2023/03/28 05:53:00;;;;;;;4.97;2.00;;;;;;;;;;5067338;28;20253;-86
2023/03/28 05:55:28;;;;;;;4.65;1.65;;;;;;;;;;5071312;28;20428;-86
2023/03/28 05:57:58;;;;;;;7.00;1.65;;;;;;;;;;5069750;28;20258;-86
2023/03/28 06:00:27;;;;;;;3.78;2.10;;;;;;;;;;5069561;28;20221;-86
2023/03/28 06:02:55;;;;;;;5.70;3.03;;;;;;;;;;5069440;28;20197;-86
2023/03/28 06:05:22;;;;;;;9.38;1.80;;;;;;;;;;5079047;23;20282;-86
2023/03/28 06:07:50;;;;;;;6.18;2.00;;;;;;;;;;5051256;28;20198;-87
2023/03/28 06:10:19;;;;;;;4.45;2.20;;;;;;;;;;5060632;28;20227;-87
2023/03/28 06:12:49;;;;;;;3.03;1.65;;;;;;;;;;5071235;28;20638;-86
2023/03/28 06:15:16;;;;;;;3.58;2.30;;;;;;;;;;5080712;28;20309;-86
2023/03/28 06:17:45;;;;;;;9.45;3.28;;;;;;;;;;5092613;28;20192;-86
2023/03/28 06:20:14;;;;;;;4.32;2.13;;;;;;;;;;5090681;28;20255;-86
2023/03/28 06:22:43;;;;;;;4.45;1.63;;;;;;;;;;5091506;28;20568;-88
2023/03/28 06:25:11;;;;;;;8.48;2.72;;;;;;;;;;5092334;28;20595;-86
2023/03/28 06:27:39;;;;;;;3.58;2.03;;;;;;;;;;5081792;28;20200;-87
2023/03/28 06:30:08;;;;;;;6.70;2.05;;;;;;;;;;5080707;28;20216;-86
2023/03/28 06:32:36;;;;;;;4.93;2.33;;;;;;;;;;5084145;28;20202;-85
2023/03/28 06:35:06;;;;;;;4.72;1.85;;;;;;;;;;5048656;28;20279;-86
2023/03/28 06:37:34;;;;;;;4.65;1.70;;;;;;;;;;5084876;28;20287;-86
2023/03/28 06:40:02;;;;;;;3.88;1.85;;;;;;;;;;5071445;28;20320;-85
2023/03/28 06:42:30;;;;;;;6.28;1.98;;;;;;;;;;5072118;28;20201;-87
2023/03/28 06:44:58;;;;;;;7.25;2.25;;;;;;;;;;5077466;28;20558;-85
2023/03/28 06:47:25;;;;;;;6.93;2.17;;;;;;;;;;5088544;28;20211;-85
2023/03/28 06:49:54;;;;;;;13.73;2.70;;;;;;;;;;5071989;28;20312;-87
2023/03/28 06:52:24;;;;;;;7.05;2.47;;;;;;;;;;5072548;28;20201;-86
2023/03/28 06:54:52;;;;;;;11.32;2.53;;;;;;;;;;5057595;28;20204;-87
2023/03/28 06:57:19;;;;;;;5.22;1.95;;;;;;;;;;5092198;28;20222;-86
2023/03/28 06:59:48;;;;;;;5.68;2.85;;;;;;;;;;5074057;28;20663;-87
2023/03/28 07:02:16;;;;;;;4.38;1.85;;;;;;;;;;5073197;28;20200;-86
2023/03/28 07:04:44;;;;;;;6.93;2.72;;;;;;;;;;5091782;28;20676;-86
2023/03/28 07:07:12;;;;;;;6.05;2.58;;;;;;;;;;5096338;28;20562;-86
2023/03/28 07:09:42;;;;;;;3.20;1.70;;;;;;;;;;5096716;28;20291;-87
2023/03/28 07:12:10;;;;;;;5.50;2.65;;;;;;;;;;5078906;28;20228;-85
2023/03/28 07:14:39;;;;;;;2.85;1.60;;;;;;;;;;5098530;28;20286;-87
2023/03/28 07:17:06;;;;;;;7.55;1.90;;;;;;;;;;5116762;28;20200;-87
2023/03/28 07:19:34;;;;;;;7.63;2.25;;;;;;;;;;5116469;28;20241;-85
2023/03/28 07:22:03;;;;;;;6.00;1.80;;;;;;;;;;5100736;28;20311;-86
2023/03/28 07:24:31;;;;;;;4.18;2.45;;;;;;;;;;5095146;28;20595;-86
2023/03/28 07:27:02;;;;;;;5.55;2.08;;;;;;;;;;5096190;28;20581;-85
2023/03/28 07:29:29;;;;;;;4.80;2.20;;;;;;;;;;5096471;28;20224;-86
2023/03/28 07:31:57;;;;;;;6.70;2.13;;;;;;;;;;5095993;28;20688;-86
2023/03/28 07:34:24;;;;;;;4.32;2.30;;;;;;;;;;5109945;28;20196;-85
2023/03/28 07:36:52;;;;;;;10.48;2.45;;;;;;;;;;5091501;28;20275;-86
2023/03/28 07:39:21;;;;;;;8.32;2.00;;;;;;;;;;5083035;28;20241;-86
2023/03/28 07:41:49;;;;;;;5.65;2.88;;;;;;;;;;5095903;28;20226;-85
2023/03/28 07:44:21;;;;;;;9.43;3.05;;;;;;;;;;5062204;28;20283;-87
2023/03/28 07:46:50;;;;;;;5.03;2.40;;;;;;;;;;5096471;28;20288;-86
2023/03/28 07:49:19;;;;;;;4.88;2.53;;;;;;;;;;5095579;28;20200;-86
2023/03/28 07:51:48;;;;;;;4.63;2.40;;;;;;;;;;5084616;28;20222;-86
2023/03/28 07:54:17;;;;;;;8.32;2.55;;;;;;;;;;5116405;28;20294;-86
2023/03/28 07:56:47;;;;;;;6.55;2.97;;;;;;;;;;5116883;28;20204;-85
2023/03/28 07:59:14;;;;;;;6.78;2.00;;;;;;;;;;5097367;28;20568;-85
2023/03/28 08:01:46;;;;;;;6.00;2.63;;;;;;;;;;5114991;28;20684;-86
2023/03/28 08:04:14;;;;;;;5.75;2.60;;;;;;;;;;5098149;28;20184;-85
2023/03/28 08:06:42;;;;;;;6.95;2.47;;;;;;;;;;5103817;28;20188;-85
2023/03/28 08:09:13;;;;;;;4.93;2.45;;;;;;;;;;5076909;28;20200;-86
2023/03/28 08:11:42;;;;;;;6.60;2.53;;;;;;;;;;5095717;28;20795;-86
2023/03/28 08:14:14;;;;;;;5.88;2.78;;;;;;;;;;5095106;28;20211;-85
2023/03/28 08:16:44;;;;;;;6.72;2.33;;;;;;;;;;5095289;28;20562;-86
2023/03/28 08:19:12;;;;;;;6.15;2.05;;;;;;;;;;5095290;28;20204;-84
2023/03/28 08:21:43;;;;;;;2.90;1.52;;;;;;;;;;5094892;28;20315;-85
2023/03/28 08:24:10;;;;;;;4.50;1.70;;;;;;;;;;5096080;28;20257;-86
2023/03/28 08:26:39;;;;;;;7.07;4.45;;;;;;;;;;5095421;28;20287;-86
2023/03/28 08:29:07;;;;;;;3.90;1.90;;;;;;;;;;5094725;28;20586;-86
2023/03/28 08:31:35;;;;;;;6.00;2.35;;;;;;;;;;5075050;28;20307;-86
2023/03/28 08:34:06;;;;;;;4.82;1.75;;;;;;;;;;5057419;28;20201;-84
2023/03/28 08:36:34;;;;;;;3.00;1.80;;;;;;;;;;5067233;28;20275;-85
2023/03/28 08:39:05;;;;;;;4.13;1.77;;;;;;;;;;5076719;28;20204;-85
2023/03/28 08:41:58;;;;;;;7.55;2.40;;;;;;;;;;5094843;28;20232;-86
2023/03/28 08:44:51;;;;;;;4.03;2.53;;;;;;;;;;5062062;28;20211;-86
2023/03/28 08:47:25;;;;;;;4.30;1.55;;;;;;;;;;5078363;28;20536;-85
2023/03/28 08:50:00;;;;;;;5.97;2.10;;;;;;;;;;5094921;28;20228;-85
2023/03/28 08:52:31;;;;;;;3.58;1.60;;;;;;;;;;5094952;28;20531;-86
2023/03/28 08:55:05;;;;;;;6.57;1.70;;;;;;;;;;5094884;28;20249;-85
2023/03/28 08:57:35;;;;;;;6.40;1.73;;;;;;;;;;5094482;28;20216;-86
2023/03/28 09:00:13;;;;;;;3.72;1.50;;;;;;;;;;5094430;28;20226;-86
2023/03/28 09:02:42;;;;;;;2.90;1.15;;;;;;;;;;5094768;28;20211;-86
2023/03/28 09:05:15;;;;;;;2.65;1.40;;;;;;;;;;5094297;28;20208;-85
2023/03/28 09:07:53;;;;;;;1.65;1.42;;;;;;;;;;5072164;28;20250;-85
2023/03/28 09:10:28;;;;;;;6.32;2.70;;;;;;;;;;5091174;28;20235;-85
2023/03/28 09:13:11;;;;;;;4.45;2.20;;;;;;;;;;5094440;28;20180;-86
2023/03/28 09:15:47;;;;;;;4.63;1.48;;;;;;;;;;5077351;28;20675;-86
2023/03/28 09:18:35;;;;;;;6.78;1.88;;;;;;;;;;5093842;28;20609;-85
2023/03/28 09:21:12;;;;;;;2.65;1.42;;;;;;;;;;5093530;28;20224;-87
2023/03/28 09:24:06;;;;;;;5.70;1.88;;;;;;;;;;5093700;28;20226;-86
2023/03/28 09:26:37;;;;;;;5.90;1.40;;;;;;;;;;5071757;28;20204;-85
2023/03/28 09:29:09;;;;;;;3.75;1.45;;;;;;;;;;5081433;28;20251;-84
2023/03/28 09:31:40;;;;;;;1.95;1.23;;;;;;;;;;5090621;28;20213;-85
2023/03/28 09:34:08;;;;;;;2.20;1.63;;;;;;;;;;5093782;28;20197;-85
2023/03/28 09:36:44;;;;;;;3.50;1.48;;;;;;;;;;5082791;28;20208;-85
2023/03/28 09:39:17;;;;;;;7.50;1.40;;;;;;;;;;5073109;28;20230;-84
2023/03/28 09:41:52;;;;;;;3.65;1.58;;;;;;;;;;5082491;28;20414;-85
2023/03/28 09:44:28;;;;;;;2.95;1.80;;;;;;;;;;5073682;28;20204;-85
2023/03/28 09:46:57;;;;;;;3.47;1.30;;;;;;;;;;5073395;28;20232;-82
2023/03/28 09:49:25;;;;;;;4.70;1.60;;;;;;;;;;5077310;28;20204;-82
2023/03/28 09:51:57;;;;;;;4.30;1.83;;;;;;;;;;5078176;28;20247;-85
2023/03/28 09:54:30;;;;;;;2.67;1.63;;;;;;;;;;5089329;28;20243;-83
2023/03/28 09:57:01;;;;;;;4.28;3.40;;;;;;;;;;5092553;28;20192;-83
2023/03/28 09:59:31;;;;;;;6.38;2.58;;;;;;;;;;5093271;28;20210;-83
2023/03/28 10:02:02;;;;;;;4.18;2.45;;;;;;;;;;5071899;28;20297;-83
2023/03/28 10:04:36;;;;;;;2.08;1.60;;;;;;;;;;5073725;28;20209;-83
2023/03/28 10:07:32;;;;;;;2.10;1.50;;;;;;;;;;5097393;28;20214;-84
2023/03/28 10:10:16;;;;;;;2.60;1.67;;;;;;;;;;5065225;28;20305;-85
2023/03/28 10:12:48;;;;;;;4.03;1.92;;;;;;;;;;5071976;28;20267;-83
2023/03/28 10:15:33;;;;;;;4.28;2.50;;;;;;;;;;5085117;28;20196;-82
2023/03/28 10:18:02;;;;;;;8.40;3.67;;;;;;;;;;5074629;28;20663;-82
2023/03/28 10:20:36;;;;;;;6.43;3.20;;;;;;;;;;5092424;28;20306;-84
2023/03/28 10:23:10;;;;;;;3.20;2.17;;;;;;;;;;5092869;28;20231;-85
2023/03/28 10:25:40;;;;;;;3.30;1.70;;;;;;;;;;5079195;28;20227;-85
2023/03/28 10:28:13;;;;;;;3.38;2.03;;;;;;;;;;5071329;28;20201;-85
2023/03/28 10:30:41;;;;;;;3.70;1.40;;;;;;;;;;5067624;28;20258;-84
2023/03/28 10:33:25;;;;;;;5.18;1.77;;;;;;;;;;5093284;28;20276;-83
2023/03/28 10:36:00;;;;;;;3.92;2.10;;;;;;;;;;5082909;28;20199;-84
2023/03/28 10:38:38;;;;;;;3.30;1.42;;;;;;;;;;5096394;28;20195;-84
2023/03/28 10:41:11;;;;;;;5.28;2.55;;;;;;;;;;5075130;28;20212;-84
2023/03/28 10:43:41;;;;;;;8.35;2.25;;;;;;;;;;5071591;28;20609;-86
2023/03/28 10:46:16;;;;;;;6.25;1.65;;;;;;;;;;5086553;28;20199;-83
2023/03/28 10:48:49;;;;;;;2.85;2.28;;;;;;;;;;5092030;28;20223;-84
2023/03/28 10:51:20;;;;;;;4.47;2.40;;;;;;;;;;5091554;28;20323;-83
2023/03/28 10:54:21;;;;;;;3.65;1.50;;;;;;;;;;5086980;28;20220;-85
2023/03/28 10:56:54;;;;;;;3.88;1.50;;;;;;;;;;5090318;28;20189;-84
2023/03/28 10:59:42;;;;;;;5.22;1.77;;;;;;;;;;5071050;28;20276;-84
2023/03/28 11:02:58;;;;;;;1.52;1.27;;;;;;;;;;5065914;28;20242;-84
2023/03/28 11:05:35;;;;;;;3.33;1.38;;;;;;;;;;5063950;28;20211;-85
2023/03/28 11:08:29;;;;;;;2.97;1.60;;;;;;;;;;5088211;28;20194;-84
2023/03/28 11:11:08;;;;;;;3.05;1.67;;;;;;;;;;5081643;28;20220;-85
2023/03/28 11:13:43;;;;;;;3.95;1.25;;;;;;;;;;5092443;28;20219;-83
2023/03/28 11:16:20;;;;;;;2.53;1.80;;;;;;;;;;5070533;28;20198;-84
2023/03/28 11:19:02;;;;;;;1.95;1.73;;;;;;;;;;5070909;28;20226;-84
2023/03/28 11:21:36;;;;;;;3.08;1.30;;;;;;;;;;5088681;28;20220;-84
2023/03/28 11:24:23;;;;;;;3.17;1.40;;;;;;;;;;5092337;28;20707;-85
2023/03/28 11:27:01;;;;;;;4.50;1.73;;;;;;;;;;5089723;28;20193;-84
2023/03/28 11:29:48;;;;;;;1.33;1.20;;;;;;;;;;5091344;28;20196;-84
2023/03/28 11:32:21;;;;;;;1.17;1.08;;;;;;;;;;5088454;28;20774;-84
2023/03/28 11:35:14;;;;;;;1.95;1.42;;;;;;;;;;5091738;28;20279;-87
2023/03/28 11:37:46;;;;;;;2.70;1.85;;;;;;;;;;5090358;28;20203;-87
2023/03/28 11:40:24;;;;;;;4.38;3.42;;;;;;;;;;5093293;28;20220;-86
2023/03/28 11:42:57;;;;;;;4.32;2.70;;;;;;;;;;5084624;28;20292;-87
2023/03/28 11:45:34;;;;;;;3.50;2.08;;;;;;;;;;5084167;28;20678;-86
2023/03/28 11:48:14;;;;;;;1.98;1.52;;;;;;;;;;5093040;28;20544;-86
2023/03/28 11:50:50;;;;;;;3.35;1.23;;;;;;;;;;5056694;28;20278;-86
2023/03/28 11:53:25;;;;;;;1.40;1.30;;;;;;;;;;5076779;28;20691;-86
2023/03/28 11:56:53;;;;;;;5.60;1.48;;;;;;;;;;5058141;28;20240;-87
2023/03/28 11:59:27;;;;;;;2.65;1.50;;;;;;;;;;5085668;28;20187;-87
2023/03/28 12:02:37;;;;;;;4.20;2.38;;;;;;;;;;5095840;28;20441;-87
2023/03/28 12:05:15;;;;;;;2.22;1.45;;;;;;;;;;5095774;28;20300;-86
2023/03/28 12:07:59;;;;;;;3.03;2.25;;;;;;;;;;5063851;28;20676;-86
2023/03/28 12:10:34;;;;;;;1.70;1.40;;;;;;;;;;5075616;28;20247;-87
2023/03/28 12:13:14;;;;;;;2.08;1.70;;;;;;;;;;5076369;28;20196;-87
2023/03/28 12:15:50;;;;;;;2.22;1.20;;;;;;;;;;5054573;28;20232;-85
2023/03/28 12:18:27;;;;;;;1.27;1.17;;;;;;;;;;5065124;28;20212;-86
2023/03/28 12:20:59;;;;;;;3.75;1.35;;;;;;;;;;5072611;28;20303;-85
2023/03/28 12:23:37;;;;;;;2.00;1.63;;;;;;;;;;5081337;28;20616;-82
2023/03/28 12:26:18;;;;;;;3.83;1.73;;;;;;;;;;5115056;28;20196;-83
2023/03/28 12:28:49;;;;;;;1.10;1.05;;;;;;;;;;5114965;28;20244;-86
2023/03/28 12:31:23;;;;;;;1.98;1.42;;;;;;;;;;5112386;28;20733;-84
2023/03/28 12:34:03;;;;;;;1.48;1.08;;;;;;;;;;5095042;28;20189;-83
2023/03/28 12:36:36;;;;;;;2.58;1.63;;;;;;;;;;5104872;28;20218;-82
2023/03/28 12:39:17;;;;;;;2.75;1.52;;;;;;;;;;5115245;28;20235;-86
2023/03/28 12:41:45;;;;;;;1.35;1.25;;;;;;;;;;5115245;28;20220;-86
2023/03/28 12:44:23;;;;;;;1.60;1.25;;;;;;;;;;5087208;28;20303;-86
2023/03/28 12:46:55;;;;;;;2.05;1.40;;;;;;;;;;5095083;28;20180;-86
2023/03/28 12:49:31;;;;;;;2.22;1.30;;;;;;;;;;5095215;28;20219;-86
2023/03/28 12:52:01;;;;;;;1.23;1.10;;;;;;;;;;5095430;28;20219;-87
2023/03/28 12:54:32;;;;;;;3.13;1.42;;;;;;;;;;5095116;28;20288;-86
2023/03/28 12:57:03;;;;;;;2.15;1.48;;;;;;;;;;5095268;28;20226;-86
2023/03/28 12:59:47;;;;;;;6.53;1.60;;;;;;;;;;5076957;28;20200;-86
2023/03/28 13:02:27;;;;;;;3.90;1.20;;;;;;;;;;5075883;28;20199;-86
2023/03/28 13:05:18;;;;;;;1.45;0.88;;;;;;;;;;5094859;28;20311;-86
2023/03/28 13:08:00;;;;;;;1.52;1.00;;;;;;;;;;5094975;28;20655;-86
2023/03/28 13:10:40;;;;;;;1.20;1.00;;;;;;;;;;5095197;28;20216;-86
2023/03/28 13:13:20;;;;;;;1.58;1.30;;;;;;;;;;5076955;28;20197;-86
2023/03/28 13:16:04;;;;;;;2.05;1.40;;;;;;;;;;5094491;28;20322;-86
2023/03/28 13:18:36;;;;;;;2.20;1.13;;;;;;;;;;5060047;28;20205;-85
2023/03/28 13:21:06;;;;;;;1.65;1.10;;;;;;;;;;5095074;28;20748;-87
2023/03/28 13:23:45;;;;;;;1.83;1.25;;;;;;;;;;5077158;28;20207;-88
2023/03/28 13:26:13;;;;;;;1.48;1.10;;;;;;;;;;5095136;28;20250;-88
2023/03/28 13:28:45;;;;;;;1.98;0.88;;;;;;;;;;5093544;28;20288;-89
2023/03/28 13:31:27;;;;;;;1.90;1.15;;;;;;;;;;5074064;28;20212;-88
2023/03/28 13:34:00;;;;;;;1.38;1.27;;;;;;;;;;5070317;28;20293;-88
2023/03/28 13:36:31;;;;;;;2.78;1.52;;;;;;;;;;5073821;28;20288;-86
2023/03/28 13:39:09;;;;;;;4.05;2.10;;;;;;;;;;5084525;28;20230;-87
2023/03/28 13:41:57;;;;;;;1.00;1.00;;;;;;;;;;5081896;28;20212;-86
2023/03/28 13:44:42;;;;;;;3.97;1.42;;;;;;;;;;5078428;28;20221;-87
2023/03/28 13:47:27;;;;;;;3.85;1.30;;;;;;;;;;5094383;28;20220;-87
2023/03/28 13:50:02;;;;;;;2.00;1.00;;;;;;;;;;5095084;28;20225;-86
2023/03/28 13:52:32;;;;;;;1.70;1.30;;;;;;;;;;5097324;28;20278;-87
2023/03/28 13:55:15;;;;;;;1.98;1.23;;;;;;;;;;5098154;28;20204;-86
2023/03/28 13:57:47;;;;;;;1.67;1.17;;;;;;;;;;5078777;28;20202;-85
2023/03/28 14:00:17;;;;;;;2.90;1.58;;;;;;;;;;5113598;28;20263;-87
2023/03/28 14:02:47;;;;;;;5.55;1.60;;;;;;;;;;5115399;28;20203;-85
2023/03/28 14:05:43;;;;;;;4.07;1.40;;;;;;;;;;5105392;28;20204;-87
2023/03/28 14:08:24;;;;;;;1.77;1.42;;;;;;;;;;5078686;28;20191;-87
2023/03/28 14:10:55;;;;;;;1.70;1.30;;;;;;;;;;5096420;28;20727;-87
2023/03/28 14:13:26;;;;;;;2.67;1.30;;;;;;;;;;5096635;28;20188;-86
2023/03/28 14:15:56;;;;;;;1.27;1.15;;;;;;;;;;5096973;28;20181;-86
2023/03/28 14:18:29;;;;;;;1.77;1.20;;;;;;;;;;5078130;28;20197;-86
2023/03/28 14:20:59;;;;;;;2.15;1.30;;;;;;;;;;5061609;28;20216;-85
2023/03/28 14:23:30;;;;;;;1.13;1.10;;;;;;;;;;5093758;28;20192;-86
2023/03/28 14:25:59;;;;;;;3.00;1.70;;;;;;;;;;5091028;28;20246;-86
2023/03/28 14:28:30;;;;;;;4.50;1.77;;;;;;;;;;5096061;28;20291;-86
2023/03/28 14:30:58;;;;;;;3.28;1.42;;;;;;;;;;5096683;28;20314;-86
2023/03/28 14:33:30;;;;;;;3.17;1.48;;;;;;;;;;5097468;28;20204;-87
2023/03/28 14:36:09;;;;;;;1.67;1.30;;;;;;;;;;5074131;28;20192;-87
2023/03/28 14:38:39;;;;;;;2.25;1.50;;;;;;;;;;5078953;28;20200;-88
2023/03/28 14:41:28;;;;;;;1.50;1.40;;;;;;;;;;5096221;28;20243;-88
2023/03/28 14:43:57;;;;;;;3.10;1.67;;;;;;;;;;5114363;28;20620;-88
2023/03/28 14:46:30;;;;;;;2.25;1.70;;;;;;;;;;5103296;28;20789;-87
2023/03/28 14:49:01;;;;;;;2.35;1.70;;;;;;;;;;5093414;28;20220;-88
2023/03/28 14:51:41;;;;;;;1.50;1.40;;;;;;;;;;5093228;28;20234;-87
2023/03/28 14:54:15;;;;;;;3.03;1.38;;;;;;;;;;5092876;28;20203;-88
2023/03/28 14:56:48;;;;;;;4.57;1.90;;;;;;;;;;5092951;28;20287;-87
2023/03/28 14:59:19;;;;;;;2.45;1.45;;;;;;;;;;5093571;28;20228;-87
2023/03/28 15:01:49;;;;;;;3.80;2.13;;;;;;;;;;5093751;28;20224;-88
2023/03/28 15:04:20;;;;;;;3.90;2.50;;;;;;;;;;5093667;28;20253;-87
2023/03/28 15:06:57;;;;;;;1.73;1.60;;;;;;;;;;5080604;28;20208;-87
2023/03/28 15:09:30;;;;;;;2.22;1.40;;;;;;;;;;5082123;28;20217;-87
2023/03/28 15:12:05;;;;;;;2.65;2.28;;;;;;;;;;5114274;28;20219;-87
2023/03/28 15:14:41;;;;;;;2.05;1.60;;;;;;;;;;5114721;28;20183;-88
2023/03/28 15:17:18;;;;;;;2.67;1.98;;;;;;;;;;5096493;28;20679;-87
2023/03/28 15:19:47;;;;;;;1.92;1.65;;;;;;;;;;5106572;28;20192;-87